Time;durP1;ratioP1;P1;durP2;ratioP2;P2;SDS_P1;SDS_P2;PMS_P1;PMS_P2;Temp;Humidity;BMP_temperature;BMP_pressure;BME280_temperature;BME280_humidity;BME280_pressure;Samples;Min_cycle;Max_cycle;Signal;HPM_P1;HPM_P2
2023/06/22 00:00:44;;;;;;;30.17;22.52;;;19.10;99.90;;;;;;5016702;28;20129;-64
2023/06/22 00:03:10;;;;;;;30.30;22.70;;;19.00;99.90;;;;;;5031283;28;20033;-64
2023/06/22 00:05:35;;;;;;;21.42;17.90;;;19.00;99.90;;;;;;5028622;28;20507;-64
2023/06/22 00:08:05;;;;;;;36.47;22.48;;;18.90;99.90;;;;;;5030996;28;20079;-67
2023/06/22 00:10:30;;;;;;;25.23;21.15;;;18.80;99.90;;;;;;5014713;28;20041;-64
2023/06/22 00:12:56;;;;;;;29.10;24.05;;;18.80;99.90;;;;;;5032528;28;20396;-64
2023/06/22 00:15:22;;;;;;;29.63;21.40;;;18.80;99.90;;;;;;5029305;28;20036;-67
2023/06/22 00:17:47;;;;;;;27.48;21.55;;;18.70;99.90;;;;;;5024343;28;20037;-63
2023/06/22 00:20:14;;;;;;;27.33;18.25;;;18.60;99.90;;;;;;5030986;28;20034;-64
2023/06/22 00:22:40;;;;;;;35.45;15.70;;;18.60;99.90;;;;;;5022874;28;20030;-66
2023/06/22 00:25:07;;;;;;;17.00;15.20;;;18.60;99.90;;;;;;5029511;28;20072;-63
2023/06/22 00:27:32;;;;;;;23.92;19.52;;;18.50;99.90;;;;;;5031987;28;20063;-64
2023/06/22 00:29:58;;;;;;;25.08;20.83;;;18.40;99.90;;;;;;5032219;28;20050;-66
2023/06/22 00:32:23;;;;;;;27.30;21.20;;;18.30;99.90;;;;;;5021630;28;20067;-64
2023/06/22 00:34:50;;;;;;;30.60;24.15;;;18.30;99.90;;;;;;5021984;28;20484;-63
2023/06/22 00:37:16;;;;;;;30.23;22.27;;;18.30;99.90;;;;;;5013926;28;20045;-64
2023/06/22 00:39:43;;;;;;;27.27;21.90;;;18.30;99.90;;;;;;5026498;28;20042;-65
2023/06/22 00:42:08;;;;;;;25.42;21.60;;;18.20;99.90;;;;;;5012548;28;20037;-64
2023/06/22 00:44:35;;;;;;;26.45;20.85;;;18.20;99.90;;;;;;5032124;28;20044;-64
2023/06/22 00:47:02;;;;;;;25.55;21.73;;;18.20;99.90;;;;;;5014238;28;20554;-64
2023/06/22 00:49:29;;;;;;;28.75;23.60;;;18.20;99.90;;;;;;5017658;28;20088;-63
2023/06/22 00:51:55;;;;;;;33.63;25.88;;;18.20;99.90;;;;;;5027857;28;20297;-63
2023/06/22 00:54:24;;;;;;;67.65;23.48;;;18.10;99.90;;;;;;5031251;28;20045;-64
2023/06/22 00:56:59;;;;;;;27.10;22.95;;;18.10;99.90;;;;;;5020925;28;20539;-63
2023/06/22 00:59:26;;;;;;;29.00;23.60;;;18.00;99.90;;;;;;5028914;28;20573;-64
2023/06/22 01:01:52;;;;;;;36.17;26.17;;;18.00;99.90;;;;;;5031807;28;20048;-63
2023/06/22 01:04:18;;;;;;;30.98;24.65;;;17.90;99.90;;;;;;5027316;28;20057;-65
2023/06/22 01:07:04;;;;;;;30.60;23.60;;;17.90;99.90;;;;;;5014850;28;20492;-64
2023/06/22 01:09:34;;;;;;;31.67;23.02;;;17.90;99.90;;;;;;5023983;28;20547;-64
2023/06/22 01:12:03;;;;;;;31.95;24.42;;;17.70;99.90;;;;;;5028214;28;20500;-64
2023/06/22 01:14:41;;;;;;;28.63;22.55;;;17.70;99.90;;;;;;5019352;28;20053;-63
2023/06/22 01:17:09;;;;;;;32.60;24.80;;;17.70;99.90;;;;;;5029244;28;20042;-64
2023/06/22 01:19:44;;;;;;;32.67;27.33;;;17.50;99.90;;;;;;5028641;28;20057;-64
2023/06/22 01:22:12;;;;;;;32.72;25.42;;;17.50;99.90;;;;;;5015034;28;20046;-63
2023/06/22 01:24:53;;;;;;;39.42;24.13;;;17.50;99.90;;;;;;5030255;28;20483;-64
2023/06/22 01:27:28;;;;;;;33.15;26.38;;;17.50;99.90;;;;;;5030758;28;20041;-64
2023/06/22 01:30:04;;;;;;;38.88;30.00;;;17.40;99.90;;;;;;5011102;28;20040;-66
2023/06/22 01:32:32;;;;;;;34.20;28.00;;;17.30;99.90;;;;;;5008622;28;20037;-64
2023/06/22 01:35:00;;;;;;;37.78;30.52;;;17.30;99.90;;;;;;5048361;28;20493;-64
2023/06/22 01:37:28;;;;;;;41.83;29.67;;;17.30;99.90;;;;;;5050936;28;20120;-66
2023/06/22 01:39:55;;;;;;;42.65;29.23;;;17.20;99.90;;;;;;5027668;28;20053;-63
2023/06/22 01:42:23;;;;;;;44.25;31.45;;;17.20;99.90;;;;;;5010219;28;20603;-63
2023/06/22 01:44:49;;;;;;;46.95;32.47;;;17.20;99.90;;;;;;5031235;28;20042;-63
2023/06/22 01:47:16;;;;;;;44.22;32.05;;;17.20;99.90;;;;;;5016504;28;20518;-64
2023/06/22 01:49:42;;;;;;;56.30;36.20;;;17.30;99.90;;;;;;5025370;28;20128;-64
2023/06/22 01:52:08;;;;;;;48.50;35.92;;;17.30;99.90;;;;;;5013562;28;20128;-64
2023/06/22 01:54:33;;;;;;;48.25;34.58;;;17.30;99.90;;;;;;5031131;28;20077;-64
2023/06/22 01:56:59;;;;;;;45.22;32.75;;;17.40;99.90;;;;;;5013872;28;20037;-65
2023/06/22 01:59:52;;;;;;;42.13;32.00;;;17.30;99.90;;;;;;5012449;28;20052;-64
2023/06/22 02:02:20;;;;;;;49.00;33.55;;;17.40;99.90;;;;;;5027491;28;20033;-64
2023/06/22 02:04:56;;;;;;;47.40;32.30;;;17.30;99.90;;;;;;5018834;28;20049;-64
2023/06/22 02:07:23;;;;;;;45.42;33.35;;;17.30;99.90;;;;;;5008931;28;20125;-65
2023/06/22 02:09:52;;;;;;;48.53;34.15;;;17.20;99.90;;;;;;5034911;28;20041;-64
2023/06/22 02:12:21;;;;;;;47.67;34.42;;;17.20;99.90;;;;;;5029747;28;20100;-64
2023/06/22 02:14:47;;;;;;;52.70;35.67;;;17.20;99.90;;;;;;5027988;28;20040;-64
2023/06/22 02:17:14;;;;;;;46.60;34.10;;;17.20;99.90;;;;;;5016609;28;20454;-68
2023/06/22 02:19:43;;;;;;;49.05;35.50;;;17.10;99.90;;;;;;5026296;28;20045;-65
2023/06/22 02:22:08;;;;;;;51.15;35.30;;;17.10;99.90;;;;;;5033879;28;20474;-65
2023/06/22 02:24:34;;;;;;;47.00;34.45;;;17.10;99.90;;;;;;5034804;28;20038;-64
2023/06/22 02:27:01;;;;;;;47.25;34.40;;;17.10;99.90;;;;;;5034695;28;20038;-65
2023/06/22 02:29:27;;;;;;;49.42;35.10;;;17.10;99.90;;;;;;5020523;28;20175;-64
2023/06/22 02:31:54;;;;;;;53.95;36.75;;;17.00;99.90;;;;;;5030509;28;20496;-64
2023/06/22 02:34:20;;;;;;;60.15;38.88;;;17.10;99.90;;;;;;5014855;28;20124;-64
2023/06/22 02:36:51;;;;;;;59.13;39.15;;;17.10;99.90;;;;;;5014616;28;20034;-65
2023/06/22 02:39:22;;;;;;;57.28;38.00;;;17.10;99.90;;;;;;5027870;28;20046;-65
2023/06/22 02:41:48;;;;;;;;;;;17.10;99.90;;;;;;5017050;28;20045;-64
2023/06/22 02:44:13;;;;;;;55.70;36.92;;;17.00;99.90;;;;;;5006535;28;19917;-66
2023/06/22 02:46:39;;;;;;;49.20;34.67;;;17.00;99.90;;;;;;5032473;28;20037;-64
2023/06/22 02:49:05;;;;;;;49.08;34.67;;;16.90;99.90;;;;;;5033490;28;20493;-66
2023/06/22 02:51:36;;;;;;;42.17;30.83;;;16.80;99.90;;;;;;5034154;28;20092;-66
2023/06/22 02:54:02;;;;;;;45.58;31.77;;;16.70;99.90;;;;;;5024121;28;20044;-64
2023/06/22 02:56:30;;;;;;;47.33;34.05;;;16.70;99.90;;;;;;5026617;28;20033;-64
2023/06/22 02:59:00;;;;;;;51.70;36.50;;;16.60;99.90;;;;;;5024675;28;20041;-65
2023/06/22 03:01:30;;;;;;;58.40;39.63;;;16.60;99.90;;;;;;5022922;28;20080;-64
2023/06/22 03:03:56;;;;;;;58.00;39.50;;;16.70;99.90;;;;;;5021074;28;20042;-64
2023/06/22 03:06:22;;;;;;;52.95;37.50;;;16.70;99.90;;;;;;5028675;28;20040;-64
2023/06/22 03:08:49;;;;;;;51.88;37.78;;;16.70;99.90;;;;;;5029621;28;20034;-64
2023/06/22 03:11:15;;;;;;;57.55;38.88;;;16.70;99.90;;;;;;5026554;28;20052;-63
2023/06/22 03:13:40;;;;;;;61.45;39.55;;;16.60;99.90;;;;;;5033115;28;20094;-64
2023/06/22 03:16:06;;;;;;;60.15;39.65;;;16.70;99.90;;;;;;5034091;28;20057;-64
2023/06/22 03:18:32;;;;;;;53.47;36.70;;;16.60;99.90;;;;;;5020827;28;20046;-64
2023/06/22 03:20:58;;;;;;;51.17;34.67;;;16.60;99.90;;;;;;5029219;28;20026;-65
2023/06/22 03:23:24;;;;;;;45.45;31.85;;;16.60;99.90;;;;;;5033332;28;20057;-64
2023/06/22 03:25:49;;;;;;;38.28;29.42;;;16.50;99.90;;;;;;5027133;28;20395;-63
2023/06/22 03:28:15;;;;;;;43.17;28.40;;;16.40;99.90;;;;;;5008715;28;20045;-64
2023/06/22 03:30:40;;;;;;;181.05;29.63;;;16.40;99.90;;;;;;5033116;28;20075;-64
2023/06/22 03:33:06;;;;;;;40.28;29.85;;;16.40;99.90;;;;;;5032430;28;20488;-64
2023/06/22 03:35:32;;;;;;;52.33;34.58;;;16.30;99.90;;;;;;5018551;28;20034;-63
2023/06/22 03:37:57;;;;;;;47.13;33.50;;;16.30;99.90;;;;;;5022607;28;20096;-64
2023/06/22 03:40:23;;;;;;;50.65;36.30;;;16.40;99.90;;;;;;5032957;28;20025;-63
2023/06/22 03:42:48;;;;;;;181.65;30.67;;;16.40;99.90;;;;;;5028542;28;20553;-64
2023/06/22 03:45:14;;;;;;;232.98;30.63;;;16.40;99.90;;;;;;5024556;28;20084;-63
2023/06/22 03:47:40;;;;;;;217.55;30.75;;;16.30;99.90;;;;;;5032655;28;20029;-64
2023/06/22 03:50:06;;;;;;;49.53;26.60;;;16.10;99.90;;;;;;5033096;28;20037;-64
2023/06/22 03:52:32;;;;;;;206.63;29.17;;;16.00;99.90;;;;;;5021734;28;20030;-65
2023/06/22 03:54:58;;;;;;;367.55;30.30;;;16.00;99.90;;;;;;5032558;28;20087;-64
2023/06/22 03:57:23;;;;;;;37.97;26.45;;;15.90;99.90;;;;;;5032288;28;20029;-63
2023/06/22 03:59:49;;;;;;;56.47;31.40;;;15.90;99.90;;;;;;5016032;28;20034;-65
2023/06/22 04:02:14;;;;;;;53.50;36.25;;;15.90;99.90;;;;;;5012427;28;20435;-64
2023/06/22 04:04:40;;;;;;;55.90;38.17;;;16.00;99.90;;;;;;5015284;28;20055;-64
2023/06/22 04:07:06;;;;;;;56.15;37.70;;;16.10;99.90;;;;;;5028410;28;20038;-63
2023/06/22 04:09:31;;;;;;;54.08;36.85;;;16.10;99.90;;;;;;5069889;23;20041;-64
2023/06/22 04:11:57;;;;;;;57.65;37.80;;;16.20;99.90;;;;;;5014088;28;20376;-65
2023/06/22 04:14:23;;;;;;;51.42;35.42;;;16.30;99.90;;;;;;5032608;28;20033;-64
2023/06/22 04:16:48;;;;;;;57.20;39.65;;;16.30;99.90;;;;;;5018658;28;20044;-64
2023/06/22 04:19:16;;;;;;;59.55;40.30;;;16.40;99.90;;;;;;5026962;28;20083;-65
2023/06/22 04:21:45;;;;;;;62.38;40.50;;;16.40;99.90;;;;;;5032176;28;20037;-65
2023/06/22 04:24:11;;;;;;;58.90;37.40;;;16.50;99.90;;;;;;5024301;28;20030;-64
2023/06/22 04:26:37;;;;;;;52.38;35.67;;;16.50;99.90;;;;;;5015492;28;20036;-65
2023/06/22 04:29:05;;;;;;;51.10;35.92;;;16.50;99.90;;;;;;5026823;28;20479;-64
2023/06/22 04:31:36;;;;;;;49.97;34.50;;;16.50;99.90;;;;;;5032234;28;20049;-64
2023/06/22 04:34:06;;;;;;;55.30;36.53;;;16.60;99.90;;;;;;5026002;28;20037;-65
2023/06/22 04:36:37;;;;;;;56.72;38.50;;;16.50;99.90;;;;;;5031796;28;20476;-64
2023/06/22 04:39:04;;;;;;;58.20;40.75;;;16.60;99.90;;;;;;5031201;28;20034;-65
2023/06/22 04:41:41;;;;;;;59.17;40.58;;;16.60;99.90;;;;;;5028310;28;20133;-65
2023/06/22 04:44:08;;;;;;;60.53;39.85;;;16.70;99.90;;;;;;5030705;28;20044;-64
2023/06/22 04:46:37;;;;;;;62.97;41.63;;;16.70;99.90;;;;;;5037003;28;20037;-64
2023/06/22 04:49:12;;;;;;;63.10;41.03;;;16.80;99.90;;;;;;5041484;28;20037;-65
2023/06/22 04:51:42;;;;;;;64.97;41.08;;;16.80;99.90;;;;;;5023648;28;20537;-64
2023/06/22 04:54:08;;;;;;;66.80;43.80;;;16.90;99.90;;;;;;5024982;28;20030;-64
2023/06/22 04:56:34;;;;;;;67.80;44.05;;;17.00;99.90;;;;;;5020003;28;20043;-64
2023/06/22 04:59:00;;;;;;;64.97;42.17;;;17.10;99.90;;;;;;5033745;28;20036;-64
2023/06/22 05:01:26;;;;;;;64.88;42.22;;;17.20;99.90;;;;;;5036627;28;20263;-65
2023/06/22 05:04:00;;;;;;;66.63;43.33;;;17.30;99.90;;;;;;5027565;28;20044;-66
2023/06/22 05:06:26;;;;;;;65.50;42.20;;;17.40;99.90;;;;;;5022720;28;20045;-64
2023/06/22 05:08:57;;;;;;;65.03;43.03;;;17.50;99.90;;;;;;5030342;28;20041;-64
2023/06/22 05:11:27;;;;;;;72.68;44.03;;;17.60;99.90;;;;;;5033617;28;20041;-65
2023/06/22 05:13:53;;;;;;;67.88;44.47;;;17.60;99.90;;;;;;5030040;28;20088;-65
2023/06/22 05:16:23;;;;;;;65.68;42.58;;;17.70;99.90;;;;;;5033808;28;20037;-65
2023/06/22 05:18:53;;;;;;;67.85;43.22;;;17.80;99.90;;;;;;5027528;28;20052;-65
2023/06/22 05:21:22;;;;;;;71.72;44.67;;;17.80;99.90;;;;;;5029104;28;20037;-67
2023/06/22 05:23:48;;;;;;;72.72;45.40;;;17.90;99.90;;;;;;5016727;28;20124;-67
2023/06/22 05:26:14;;;;;;;68.90;42.72;;;17.90;99.90;;;;;;5023874;28;20120;-65
2023/06/22 05:28:39;;;;;;;63.92;42.35;;;18.00;99.90;;;;;;5030957;28;20040;-66
2023/06/22 05:31:05;;;;;;;68.88;41.83;;;18.10;99.90;;;;;;5024480;28;20046;-65
2023/06/22 05:33:30;;;;;;;66.47;42.05;;;18.20;99.90;;;;;;5023731;28;20033;-66
2023/06/22 05:35:56;;;;;;;61.58;40.13;;;18.30;99.90;;;;;;5023038;28;20037;-65
2023/06/22 05:38:22;;;;;;;63.20;39.55;;;18.30;99.90;;;;;;5024245;28;20472;-66
2023/06/22 05:40:47;;;;;;;61.10;40.28;;;18.30;99.90;;;;;;5023893;28;20036;-65
2023/06/22 05:43:13;;;;;;;58.22;39.30;;;18.40;99.90;;;;;;5033696;28;20045;-64
2023/06/22 05:45:38;;;;;;;57.30;38.75;;;18.50;99.90;;;;;;5035280;28;20049;-65
2023/06/22 05:48:04;;;;;;;59.30;38.83;;;18.50;99.90;;;;;;5021485;28;20029;-66
2023/06/22 05:50:30;;;;;;;56.28;37.92;;;18.60;99.90;;;;;;5034946;28;20048;-65
2023/06/22 05:52:56;;;;;;;56.75;39.00;;;18.60;99.90;;;;;;5035060;28;20116;-65
2023/06/22 05:55:21;;;;;;;57.17;39.58;;;18.60;99.90;;;;;;5027929;28;20091;-66
2023/06/22 05:57:47;;;;;;;55.60;38.33;;;18.70;99.90;;;;;;5032644;28;20040;-65
2023/06/22 06:00:14;;;;;;;58.15;38.28;;;18.80;99.90;;;;;;5016256;28;20042;-65
2023/06/22 06:02:43;;;;;;;54.65;37.83;;;18.90;99.90;;;;;;5021819;28;20124;-65
2023/06/22 06:05:11;;;;;;;54.47;37.30;;;19.00;99.90;;;;;;5027244;28;20496;-65
2023/06/22 06:07:37;;;;;;;49.65;36.05;;;19.10;99.90;;;;;;5025430;28;20041;-66
2023/06/22 06:10:04;;;;;;;52.20;35.72;;;19.10;99.90;;;;;;5018775;28;20041;-66
2023/06/22 06:12:30;;;;;;;50.58;35.95;;;19.10;99.90;;;;;;5023270;28;20046;-65
2023/06/22 06:14:56;;;;;;;53.03;35.90;;;19.20;99.90;;;;;;5023102;28;20467;-65
2023/06/22 06:17:22;;;;;;;49.33;36.38;;;19.30;99.90;;;;;;5016227;28;20095;-65
2023/06/22 06:19:47;;;;;;;49.65;35.83;;;19.40;99.90;;;;;;5035072;28;20041;-66
2023/06/22 06:22:13;;;;;;;50.38;35.20;;;19.50;99.90;;;;;;5027462;28;20077;-66
2023/06/22 06:24:38;;;;;;;49.65;36.40;;;19.60;99.90;;;;;;5028518;28;20090;-65
2023/06/22 06:27:04;;;;;;;45.92;33.97;;;19.70;99.90;;;;;;5037071;28;20034;-65
2023/06/22 06:29:31;;;;;;;47.25;33.42;;;19.90;99.90;;;;;;5026520;28;20037;-65
2023/06/22 06:31:56;;;;;;;45.30;32.33;;;19.90;99.90;;;;;;5028827;28;20048;-65
2023/06/22 06:34:22;;;;;;;42.35;30.55;;;20.00;99.90;;;;;;5034216;28;20112;-64
2023/06/22 06:36:48;;;;;;;38.88;28.88;;;20.10;99.90;;;;;;5034559;28;20522;-65
2023/06/22 06:39:13;;;;;;;38.22;27.52;;;20.10;99.90;;;;;;5021130;28;20133;-65
2023/06/22 06:41:39;;;;;;;35.92;26.83;;;20.10;99.90;;;;;;5031182;28;20049;-65
2023/06/22 06:44:05;;;;;;;34.65;26.95;;;20.20;99.90;;;;;;5033667;28;20495;-65
2023/06/22 06:46:30;;;;;;;32.63;25.95;;;20.20;99.90;;;;;;5028756;28;20084;-66
2023/06/22 06:48:56;;;;;;;34.45;26.33;;;20.30;99.90;;;;;;5028822;28;20033;-66
2023/06/22 06:51:21;;;;;;;33.50;26.00;;;20.30;99.90;;;;;;5028617;28;20038;-65
2023/06/22 06:53:47;;;;;;;33.08;26.02;;;20.40;99.90;;;;;;5032925;28;20112;-65
2023/06/22 06:56:13;;;;;;;34.88;25.55;;;20.60;99.90;;;;;;5033760;28;20049;-65
2023/06/22 06:58:42;;;;;;;32.00;25.75;;;20.70;99.90;;;;;;5033357;28;20120;-66
2023/06/22 07:01:08;;;;;;;34.80;25.77;;;20.90;99.90;;;;;;5022682;28;20052;-65
2023/06/22 07:03:34;;;;;;;33.65;25.88;;;21.00;99.90;;;;;;5019074;28;20033;-65
2023/06/22 07:06:00;;;;;;;31.90;24.75;;;21.10;99.90;;;;;;5024076;28;20033;-65
2023/06/22 07:08:25;;;;;;;32.45;24.50;;;21.10;99.90;;;;;;5032837;28;20380;-65
2023/06/22 07:10:52;;;;;;;31.80;24.38;;;21.20;99.90;;;;;;5032801;28;20083;-68
2023/06/22 07:13:18;;;;;;;29.80;24.50;;;21.10;99.90;;;;;;5029705;28;20129;-68
2023/06/22 07:15:43;;;;;;;30.55;23.83;;;21.10;99.90;;;;;;5026912;28;20116;-65
2023/06/22 07:18:09;;;;;;;30.90;23.02;;;21.20;99.90;;;;;;5032726;28;20396;-65
2023/06/22 07:20:35;;;;;;;29.58;22.70;;;21.30;99.90;;;;;;5026771;28;20444;-65
2023/06/22 07:23:01;;;;;;;28.73;21.88;;;21.30;99.90;;;;;;5020363;28;20057;-68
2023/06/22 07:25:26;;;;;;;25.27;20.73;;;21.40;99.90;;;;;;5025829;28;20488;-68
2023/06/22 07:28:03;;;;;;;26.05;20.15;;;21.50;99.90;;;;;;5033214;28;20040;-69
2023/06/22 07:30:30;;;;;;;25.60;19.55;;;21.60;99.90;;;;;;5030889;28;20099;-66
2023/06/22 07:32:56;;;;;;;24.98;18.95;;;21.70;99.90;;;;;;5017928;28;20092;-63
2023/06/22 07:35:22;;;;;;;28.35;20.83;;;21.70;99.90;;;;;;5029863;28;20033;-68
2023/06/22 07:37:47;;;;;;;25.48;19.05;;;21.60;99.90;;;;;;5007374;28;20392;-68
2023/06/22 07:40:13;;;;;;;25.45;19.35;;;21.50;99.90;;;;;;5012799;28;20041;-66
2023/06/22 07:42:38;;;;;;;25.70;19.38;;;21.60;99.90;;;;;;5032977;28;20132;-68
2023/06/22 07:45:05;;;;;;;24.48;19.45;;;21.60;99.90;;;;;;5021647;28;20057;-69
2023/06/22 07:47:34;;;;;;;23.55;18.70;;;21.60;99.90;;;;;;5029396;28;20037;-68
2023/06/22 07:50:01;;;;;;;24.88;17.73;;;21.70;99.90;;;;;;5032832;28;20041;-68
2023/06/22 07:52:27;;;;;;;24.58;19.00;;;21.80;99.90;;;;;;5000683;28;20037;-68
2023/06/22 07:54:53;;;;;;;24.10;17.70;;;21.90;99.90;;;;;;5020341;28;20117;-67
2023/06/22 07:57:20;;;;;;;23.25;18.15;;;22.00;99.90;;;;;;5034029;28;20117;-68
2023/06/22 07:59:45;;;;;;;22.65;17.80;;;22.10;99.90;;;;;;5027440;28;20045;-69
2023/06/22 08:02:11;;;;;;;23.58;17.90;;;22.10;99.90;;;;;;5033359;28;20090;-68
2023/06/22 08:04:37;;;;;;;21.73;17.70;;;22.20;99.90;;;;;;5036370;28;20091;-68
2023/06/22 08:07:04;;;;;;;26.42;17.75;;;22.30;99.90;;;;;;5020958;28;20091;-63
2023/06/22 08:09:31;;;;;;;20.67;15.40;;;22.30;99.90;;;;;;5014935;28;20168;-67
2023/06/22 08:11:57;;;;;;;22.48;15.73;;;22.40;99.90;;;;;;5004951;28;20045;-66
2023/06/22 08:14:27;;;;;;;19.85;15.90;;;22.40;99.90;;;;;;5016782;28;20112;-68
2023/06/22 08:16:52;;;;;;;19.05;15.27;;;22.50;99.90;;;;;;5021624;28;20029;-68
2023/06/22 08:19:18;;;;;;;21.30;15.73;;;22.60;99.90;;;;;;5032024;28;20104;-69
2023/06/22 08:21:44;;;;;;;22.25;16.50;;;22.70;99.90;;;;;;5008706;28;20056;-68
2023/06/22 08:24:09;;;;;;;25.38;16.83;;;22.70;99.90;;;;;;5020541;28;20038;-68
2023/06/22 08:26:37;;;;;;;20.70;15.43;;;22.80;99.90;;;;;;5027055;28;20068;-68
2023/06/22 08:29:03;;;;;;;20.15;15.60;;;22.80;99.90;;;;;;5027027;28;20069;-69
2023/06/22 08:31:30;;;;;;;21.77;16.33;;;22.90;99.90;;;;;;5025063;28;20511;-68
2023/06/22 08:33:55;;;;;;;21.65;16.77;;;23.10;99.90;;;;;;5018197;28;20044;-68
2023/06/22 08:36:21;;;;;;;21.27;16.23;;;23.20;99.90;;;;;;5022831;28;20033;-68
2023/06/22 08:38:51;;;;;;;18.52;14.95;;;23.30;99.90;;;;;;5031160;28;20041;-68
2023/06/22 08:41:17;;;;;;;21.27;16.30;;;23.40;99.90;;;;;;5027012;28;20764;-68
2023/06/22 08:43:44;;;;;;;22.75;15.85;;;23.40;99.90;;;;;;5023308;28;20082;-68
2023/06/22 08:46:10;;;;;;;20.92;15.90;;;23.40;99.90;;;;;;5025343;28;20041;-68
2023/06/22 08:48:36;;;;;;;24.65;14.85;;;23.50;99.90;;;;;;5031546;28;20070;-67
2023/06/22 08:51:03;;;;;;;18.00;14.23;;;23.50;99.90;;;;;;5031791;28;20045;-67
2023/06/22 08:53:28;;;;;;;20.95;15.70;;;23.60;99.90;;;;;;5003766;28;20116;-68
2023/06/22 08:55:54;;;;;;;20.80;15.68;;;23.70;99.90;;;;;;5010933;28;20124;-68
2023/06/22 08:58:21;;;;;;;20.83;16.42;;;23.90;99.90;;;;;;5027007;28;20040;-69
2023/06/22 09:00:47;;;;;;;18.45;14.82;;;23.90;99.90;;;;;;5019212;28;20451;-68
2023/06/22 09:03:13;;;;;;;19.25;15.43;;;23.90;99.90;;;;;;5029277;28;20124;-68
2023/06/22 09:05:39;;;;;;;21.05;15.55;;;24.00;99.90;;;;;;5026098;28;20116;-68
2023/06/22 09:08:04;;;;;;;21.30;15.73;;;24.10;99.90;;;;;;5023826;28;20532;-67
2023/06/22 09:10:30;;;;;;;19.40;14.82;;;24.00;99.90;;;;;;5027153;28;20411;-69
2023/06/22 09:12:57;;;;;;;22.67;15.38;;;24.10;99.90;;;;;;5026002;28;20038;-65
2023/06/22 09:15:23;;;;;;;20.45;15.05;;;24.20;99.90;;;;;;5025392;28;20570;-67
2023/06/22 09:17:48;;;;;;;21.88;14.85;;;24.30;99.90;;;;;;5017725;28;20033;-69
2023/06/22 09:20:14;;;;;;;20.35;14.68;;;24.40;99.90;;;;;;5029621;28;20072;-69
2023/06/22 09:22:40;;;;;;;17.98;14.85;;;24.50;99.90;;;;;;5031597;28;20060;-69
2023/06/22 09:25:06;;;;;;;18.30;13.88;;;24.60;99.90;;;;;;5016805;28;20037;-69
2023/06/22 09:27:31;;;;;;;17.92;14.50;;;24.70;99.90;;;;;;5025951;28;20116;-69
2023/06/22 09:29:58;;;;;;;16.95;14.07;;;24.80;99.90;;;;;;5031255;28;20065;-69
2023/06/22 09:32:25;;;;;;;17.40;14.52;;;24.90;99.90;;;;;;5026781;28;20037;-69
2023/06/22 09:34:51;;;;;;;16.38;14.18;;;25.00;99.90;;;;;;5017238;28;20461;-69
2023/06/22 09:37:16;;;;;;;18.30;14.48;;;25.10;99.90;;;;;;5023667;28;20144;-67
2023/06/22 09:39:42;;;;;;;19.30;14.65;;;25.20;99.90;;;;;;5025040;28;20193;-69
2023/06/22 09:42:08;;;;;;;18.98;14.32;;;25.00;99.90;;;;;;5030689;28;20484;-68
2023/06/22 09:44:33;;;;;;;18.55;14.93;;;25.00;99.90;;;;;;5031614;28;20095;-68
2023/06/22 09:47:00;;;;;;;17.30;14.98;;;25.00;99.90;;;;;;5018323;28;20054;-69
2023/06/22 09:49:25;;;;;;;17.13;14.13;;;25.10;99.90;;;;;;5025859;28;20029;-67
2023/06/22 09:51:52;;;;;;;18.27;14.32;;;25.00;99.90;;;;;;5012049;28;20044;-71
2023/06/22 09:54:18;;;;;;;18.95;15.48;;;25.10;99.90;;;;;;5030093;28;20040;-69
2023/06/22 09:56:43;;;;;;;18.23;13.52;;;25.20;99.90;;;;;;5031349;28;20033;-70
2023/06/22 09:59:09;;;;;;;18.30;14.15;;;25.30;99.90;;;;;;5022061;28;20077;-68
2023/06/22 10:01:35;;;;;;;17.20;12.88;;;25.60;99.90;;;;;;5030658;28;20025;-68
2023/06/22 10:04:02;;;;;;;16.15;13.52;;;25.80;99.90;;;;;;5030596;28;20483;-68
2023/06/22 10:06:28;;;;;;;16.20;13.60;;;25.90;99.90;;;;;;5022728;28;20061;-68
2023/06/22 10:08:53;;;;;;;15.95;13.73;;;26.10;99.90;;;;;;5030551;28;20484;-68
2023/06/22 10:11:19;;;;;;;18.80;15.30;;;26.10;99.90;;;;;;5030225;28;20041;-68
2023/06/22 10:13:45;;;;;;;16.63;13.77;;;26.20;99.90;;;;;;5031415;28;20061;-68
2023/06/22 10:16:10;;;;;;;18.35;14.02;;;26.10;99.90;;;;;;5026270;28;20042;-68
2023/06/22 10:18:36;;;;;;;16.52;14.60;;;26.30;99.90;;;;;;5022556;28;20049;-72
2023/06/22 10:23:37;;;;;;;16.02;12.95;;;26.40;99.10;;;;;;5599774;23;20046;-69
2023/06/22 10:26:02;;;;;;;17.38;11.93;;;26.60;99.60;;;;;;4981353;28;20089;-70
2023/06/22 10:30:56;;;;;;;15.55;12.77;;;26.60;99.70;;;;;;5004869;28;20041;-69
2023/06/22 10:33:21;;;;;;;12.95;11.45;;;26.70;99.60;;;;;;5015973;28;20042;-70
2023/06/22 10:35:47;;;;;;;14.57;10.90;;;26.80;98.30;;;;;;5007702;28;20090;-70
2023/06/22 10:38:12;;;;;;;15.15;11.95;;;27.00;98.80;;;;;;4988157;28;20570;-71
2023/06/22 10:40:39;;;;;;;17.05;11.52;;;27.00;98.80;;;;;;4995616;28;20041;-70
2023/06/22 10:43:05;;;;;;;14.40;10.35;;;27.00;99.30;;;;;;5013424;28;20049;-70
2023/06/22 10:54:23;;;;;;;14.93;12.20;;;27.40;98.70;;;;;;5978328;23;20106;-68
2023/06/22 10:56:49;;;;;;;11.27;10.05;;;27.50;98.40;;;;;;4988448;28;20026;-71
2023/06/22 10:59:15;;;;;;;13.23;10.32;;;27.60;99.10;;;;;;4993015;28;20503;-68
2023/06/22 11:20:23;;;;;;;11.80;9.38;;;27.60;91.80;;;;;;5698490;23;20049;-68
2023/06/22 11:25:24;;;;;;;10.70;8.85;;;27.50;96.30;;;;;;5458941;23;20068;-68
2023/06/22 11:27:51;;;;;;;9.68;7.63;;;27.40;95.70;;;;;;5023054;28;20045;-70
2023/06/22 11:38:04;;;;;;;12.15;9.15;;;27.20;94.60;;;;;;5884244;23;20503;-67
2023/06/22 11:40:29;;;;;;;9.05;7.68;;;27.20;95.40;;;;;;5004332;28;20045;-70
2023/06/22 12:01:46;;;;;;;9.07;7.80;;;27.20;95.90;;;;;;5630195;23;20052;-63
2023/06/22 12:04:11;;;;;;;9.05;8.10;;;27.30;96.00;;;;;;4990022;28;20146;-63
2023/06/22 12:06:41;;;;;;;9.25;8.10;;;27.40;95.70;;;;;;4994264;28;20467;-63
2023/06/22 12:09:06;;;;;;;8.20;7.32;;;27.40;95.70;;;;;;4992412;28;20046;-63
2023/06/22 12:11:32;;;;;;;10.40;7.18;;;27.60;95.30;;;;;;4993165;28;20050;-63
2023/06/22 12:14:01;;;;;;;9.90;6.43;;;27.60;94.10;;;;;;4975566;28;20090;-64
2023/06/22 12:16:27;;;;;;;9.50;6.45;;;27.70;94.70;;;;;;4986001;28;20035;-67
2023/06/22 12:18:53;;;;;;;8.48;6.80;;;27.70;94.00;;;;;;4965500;28;20061;-67
2023/06/22 12:21:19;;;;;;;11.25;7.03;;;27.70;94.20;;;;;;4980865;28;20480;-66
2023/06/22 12:23:45;;;;;;;11.32;7.57;;;27.80;94.20;;;;;;4986295;28;20073;-65
2023/06/22 12:26:10;;;;;;;9.13;7.32;;;27.70;94.20;;;;;;4959798;28;20044;-62
2023/06/22 12:28:36;;;;;;;8.88;6.65;;;27.70;94.00;;;;;;4939058;28;20038;-68
2023/06/22 12:31:01;;;;;;;9.13;7.63;;;27.70;94.10;;;;;;4987989;28;20031;-63
2023/06/22 12:33:27;;;;;;;10.10;7.53;;;27.60;93.20;;;;;;4977217;28;20141;-69
2023/06/22 12:35:52;;;;;;;13.98;8.30;;;27.70;93.50;;;;;;4987959;28;20054;-70
2023/06/22 12:38:18;;;;;;;10.75;8.98;;;27.50;93.70;;;;;;4983425;28;20034;-70
2023/06/22 12:40:44;;;;;;;12.57;10.23;;;27.40;93.30;;;;;;4991128;28;20040;-68
2023/06/22 12:43:09;;;;;;;12.98;10.38;;;27.20;94.10;;;;;;4956976;28;20086;-69
2023/06/22 12:45:35;;;;;;;10.00;8.30;;;27.10;94.50;;;;;;4963661;28;20034;-68
2023/06/22 12:48:01;;;;;;;13.90;9.20;;;27.10;94.20;;;;;;4992169;28;20058;-69
2023/06/22 12:50:26;;;;;;;10.88;9.10;;;26.90;93.40;;;;;;4985140;28;20038;-69
2023/06/22 12:52:52;;;;;;;10.70;9.10;;;26.80;94.10;;;;;;4943791;28;20039;-69
2023/06/22 12:55:18;;;;;;;11.43;8.68;;;26.80;94.30;;;;;;4984847;28;20462;-69
2023/06/22 12:57:43;;;;;;;9.57;8.25;;;26.60;94.50;;;;;;4992129;28;20030;-68
2023/06/22 13:00:10;;;;;;;10.70;7.57;;;26.60;94.90;;;;;;4990319;28;20046;-64
2023/06/22 13:02:36;;;;;;;7.85;7.05;;;26.50;94.90;;;;;;4988594;28;20093;-69
2023/06/22 13:05:04;;;;;;;8.20;6.88;;;26.30;94.60;;;;;;4984993;28;20051;-68
2023/06/22 13:07:30;;;;;;;12.27;7.05;;;26.20;94.60;;;;;;4995431;28;20120;-68
2023/06/22 13:09:56;;;;;;;8.45;6.65;;;26.30;94.90;;;;;;4990492;28;20121;-69
2023/06/22 13:12:22;;;;;;;9.50;7.25;;;26.30;94.60;;;;;;4987289;28;20042;-68
2023/06/22 13:14:48;;;;;;;8.65;7.07;;;26.30;94.30;;;;;;4991524;28;20057;-69
2023/06/22 13:17:14;;;;;;;11.15;7.82;;;26.30;94.40;;;;;;4988554;28;20117;-70
2023/06/22 13:19:40;;;;;;;11.40;7.47;;;26.30;94.00;;;;;;4971719;28;20723;-66
2023/06/22 13:22:27;;;;;;;14.23;7.70;;;26.20;94.10;;;;;;4959332;28;20077;-65
2023/06/22 13:24:52;;;;;;;9.75;6.68;;;26.20;94.20;;;;;;4985692;28;20039;-67
2023/06/22 13:27:18;;;;;;;11.30;7.50;;;26.10;94.80;;;;;;4965697;28;20044;-66